Impacts TAF Board INFO
FOR SITUATIONAL AWARENESS. NOT TO BE USED FOR FLIGHT PLANNING PURPOSES.
IDs:

KTPA - Tampa Intl Arpt, FL, US

Issued at 0837 UTC 20 Jan 2018
Updated at 1103 UTC 20 Jan 2018
Potential Impact None Slight Moderate High
Time1053Z 20/12Z 20/13Z 20/14Z 20/15Z 20/16Z 20/17Z 20/18Z 20/19Z 20/20Z 20/21Z 20/22Z 20/23Z 21/00Z>>
Type OBS PRVL PRVL PRVL PRVL PRVL PRVL PRVL PRVL PRVL PRVL PRVL PRVL PRVL
VIS 10 >6 >6 >6 >6 >6 >6 >6 >6 >6 >6 >6 >6 >6
CIG -- -- -- 250 250 250 250 250 250 200 200 200 200 150
Cover SCT SCT SCT BKN BKN BKN BKN BKN BKN BKN BKN BKN BKN OVC
FltCat VFR VFR VFR VFR VFR VFR VFR VFR VFR VFR VFR VFR VFR VFR
WX -- -- -- -- -- -- -- -- -- -- -- -- -- --
WDir VRB 50 50 80 80 80 80 80 80 240 240 240 240 30
WSpd 0 4 4 6 6 6 6 6 6 5 5 5 5 5
WGst -- -- -- -- -- -- -- -- -- -- -- -- -- --

Raw TAF
KTPA 200837Z 2009/2112 05004KT P6SM SCT250
  FM201400 08006KT P6SM BKN250
  FM202000 24005KT P6SM SCT030 BKN200
  FM210000 03005KT P6SM SCT025 OVC150


Raw METAR
KTPA 201053Z 00000KT 10SM SCT240 09/01 A3027 RMK AO2 SLP250 T00940011
KTPA 200953Z VRB03KT 10SM SCT240 09/01 A3024 RMK AO2 SLP241 T00940011
KTPA 200853Z 04003KT 10SM SCT240 09/M01 A3026 RMK AO2 SLP247 T00891006 56006

METAR Board
Radar Display
Forecast Discussion

FOR SITUATIONAL AWARENESS. NOT TO BE USED FOR FLIGHT PLANNING PURPOSES.